createdAt,value
2023-01-20T00:22:10.923Z,61.26
2023-01-20T00:23:10.913Z,62.69
2023-01-20T00:24:10.884Z,64.04
2023-01-20T00:25:10.973Z,62.91
2023-01-20T00:26:10.860Z,62.80
2023-01-20T00:27:10.850Z,60.69
2023-01-20T00:28:10.862Z,63.05
2023-01-20T00:29:10.827Z,61.80
2023-01-20T00:30:10.817Z,63.36
2023-01-20T00:31:10.837Z,62.73
2023-01-20T00:32:10.801Z,63.12
2023-01-20T00:33:10.791Z,63.20
2023-01-20T00:34:10.785Z,63.15
2023-01-20T00:35:10.915Z,63.30
2023-01-20T00:36:10.767Z,64.51
2023-01-20T00:37:10.771Z,64.53
2023-01-20T00:38:10.747Z,64.95
2023-01-20T00:39:10.738Z,63.00
2023-01-20T00:40:10.742Z,64.17
2023-01-20T00:41:10.724Z,65.12
2023-01-20T00:42:10.721Z,63.34
2023-01-20T00:43:10.694Z,63.13
2023-01-20T00:44:10.670Z,65.87
2023-01-20T00:45:10.669Z,63.63
2023-01-20T00:46:10.690Z,64.19
2023-01-20T00:47:10.644Z,65.81
2023-01-20T00:48:10.634Z,64.50
2023-01-20T00:49:10.619Z,67.48
2023-01-20T00:50:10.609Z,64.58
2023-01-20T00:51:10.618Z,66.91
2023-01-20T00:52:10.582Z,66.87
2023-01-20T00:53:10.580Z,63.68
2023-01-20T00:54:10.561Z,65.77
2023-01-20T00:55:10.639Z,66.98
2023-01-20T00:56:10.542Z,66.56
2023-01-20T00:57:10.533Z,65.96
2023-01-20T00:58:10.530Z,66.16
2023-01-20T00:59:10.528Z,67.77
2023-01-20T01:00:10.521Z,68.63
2023-01-20T01:01:10.528Z,67.72
2023-01-20T01:02:10.635Z,68.10
2023-01-20T01:03:10.488Z,67.91
2023-01-20T01:04:10.467Z,68.61
2023-01-20T01:05:10.571Z,68.76
2023-01-20T01:06:10.448Z,69.09
2023-01-20T01:07:10.441Z,67.97
2023-01-20T01:08:10.429Z,69.72
2023-01-20T01:09:10.418Z,70.07
2023-01-20T01:10:10.431Z,68.84
2023-01-20T01:11:10.397Z,69.43
2023-01-20T01:12:10.389Z,70.11
2023-01-20T01:13:10.383Z,70.63
2023-01-20T01:14:10.366Z,71.25
2023-01-20T01:15:10.389Z,70.91
2023-01-20T01:16:10.371Z,70.44
2023-01-20T01:17:10.351Z,67.50
2023-01-20T01:18:10.317Z,68.42
2023-01-20T01:19:10.318Z,71.69
2023-01-20T01:20:10.307Z,71.18
2023-01-20T01:21:10.292Z,69.32
2023-01-20T01:22:10.284Z,69.57
2023-01-20T01:23:10.275Z,72.66
2023-01-20T01:24:10.260Z,70.40
2023-01-20T01:25:10.269Z,71.49
2023-01-20T01:26:10.243Z,71.13
2023-01-20T01:27:10.223Z,70.48
2023-01-20T01:28:10.213Z,71.00
2023-01-20T01:29:10.208Z,71.65
2023-01-20T01:30:10.191Z,72.37
2023-01-20T01:31:10.242Z,71.19
2023-01-20T01:32:10.190Z,70.36
2023-01-20T01:33:10.163Z,74.16
2023-01-20T01:34:10.170Z,71.09
2023-01-20T01:35:10.187Z,72.31
2023-01-20T01:36:10.161Z,71.52
2023-01-20T01:37:10.158Z,74.17
2023-01-20T01:38:10.139Z,72.40
2023-01-20T01:39:10.132Z,72.55
2023-01-20T01:40:10.140Z,72.93
2023-01-20T01:41:10.104Z,72.37
2023-01-20T01:42:10.098Z,74.81
2023-01-20T01:43:10.087Z,72.61
2023-01-20T01:44:10.093Z,72.69
2023-01-20T01:45:10.144Z,73.25
2023-01-20T01:46:10.088Z,74.04
2023-01-20T01:47:10.088Z,74.33
2023-01-20T01:48:10.054Z,74.15
2023-01-20T01:49:10.052Z,73.58
2023-01-20T01:50:10.051Z,73.54
2023-01-20T01:51:10.061Z,74.16
2023-01-20T01:52:10.009Z,76.26
2023-01-20T01:53:10.019Z,73.72
2023-01-20T01:54:10.013Z,74.82
2023-01-20T01:55:09.988Z,72.38
2023-01-20T01:56:09.968Z,74.46
2023-01-20T01:57:09.971Z,74.99
2023-01-20T01:58:09.961Z,76.02
2023-01-20T01:59:09.984Z,74.65
2023-01-20T02:00:09.956Z,73.89
2023-01-20T02:01:09.979Z,75.47
2023-01-20T02:02:09.974Z,73.79
2023-01-20T02:03:09.921Z,75.17
2023-01-20T02:04:09.912Z,74.23
2023-01-20T02:05:09.975Z,73.84
2023-01-20T02:06:09.894Z,73.81
2023-01-20T02:07:09.895Z,74.48
2023-01-20T02:08:09.908Z,71.16
2023-01-20T02:09:09.874Z,72.67
2023-01-20T02:10:09.881Z,72.44
2023-01-20T02:11:09.873Z,71.34
2023-01-20T02:12:09.863Z,72.33
2023-01-20T02:13:09.848Z,72.00
2023-01-20T02:14:09.838Z,73.03
2023-01-20T02:15:09.828Z,71.68
2023-01-20T02:16:09.862Z,71.02
2023-01-20T02:17:09.805Z,69.30
2023-01-20T02:18:09.813Z,68.75
2023-01-20T02:19:09.825Z,69.91
2023-01-20T02:20:09.808Z,68.09
2023-01-20T02:21:09.790Z,66.97
2023-01-20T02:22:11.753Z,66.25
2023-01-20T02:23:09.795Z,67.75
2023-01-20T02:24:09.776Z,66.34
2023-01-20T02:25:09.752Z,65.04
2023-01-20T02:26:09.767Z,65.48
2023-01-20T02:27:09.741Z,65.73
2023-01-20T02:28:09.771Z,66.29
2023-01-20T02:29:09.726Z,64.70
2023-01-20T02:30:09.738Z,65.16
2023-01-20T02:31:09.704Z,64.35
2023-01-20T02:32:09.697Z,65.63
2023-01-20T02:33:09.688Z,63.89
2023-01-20T02:34:09.681Z,63.37
2023-01-20T02:35:09.694Z,63.69
2023-01-20T02:36:09.672Z,63.84
2023-01-20T02:37:09.663Z,61.66
2023-01-20T02:38:09.647Z,61.95
2023-01-20T02:39:09.638Z,61.07
2023-01-20T02:40:09.646Z,61.86
2023-01-20T02:41:09.618Z,63.81
2023-01-20T02:42:09.615Z,61.75
2023-01-20T02:43:09.605Z,61.47
2023-01-20T02:44:09.585Z,62.32
2023-01-20T02:45:09.604Z,63.83
2023-01-20T02:46:09.565Z,62.27
2023-01-20T02:47:09.569Z,62.39
2023-01-20T02:48:09.553Z,61.79
2023-01-20T02:49:09.528Z,61.50
2023-01-20T02:50:09.549Z,61.18
2023-01-20T02:51:09.522Z,59.54
2023-01-20T02:52:09.530Z,59.80
2023-01-20T02:53:09.552Z,57.79
2023-01-20T02:54:09.513Z,59.16
2023-01-20T02:55:09.508Z,58.83
2023-01-20T02:56:09.470Z,59.12
2023-01-20T02:57:09.477Z,59.27
2023-01-20T02:58:09.470Z,56.51
2023-01-20T02:59:09.471Z,57.98
2023-01-20T03:00:09.477Z,55.42
2023-01-20T03:01:09.533Z,57.08
2023-01-20T03:02:09.495Z,57.22
2023-01-20T03:03:09.437Z,57.76
2023-01-20T03:04:09.543Z,57.47
2023-01-20T03:05:09.444Z,56.92
2023-01-20T03:06:09.423Z,56.01
2023-01-20T03:07:09.409Z,57.29
2023-01-20T03:08:09.471Z,56.73
2023-01-20T03:09:09.405Z,55.97
2023-01-20T03:10:09.407Z,54.87
2023-01-20T03:11:09.422Z,53.65
2023-01-20T03:12:09.378Z,52.50
2023-01-20T03:13:09.355Z,54.78
2023-01-20T03:14:09.372Z,52.35
2023-01-20T03:15:09.354Z,52.19
2023-01-20T03:16:09.367Z,54.50
2023-01-20T03:17:09.389Z,52.75
2023-01-20T03:18:09.321Z,53.61
2023-01-20T03:19:09.325Z,51.91
2023-01-20T03:20:09.317Z,52.87
2023-01-20T03:21:09.317Z,53.00
2023-01-20T03:22:09.293Z,52.95
2023-01-20T03:23:09.296Z,53.08
2023-01-20T03:24:09.285Z,51.46
2023-01-20T03:25:09.281Z,52.13
2023-01-20T03:26:09.298Z,51.83
2023-01-20T03:27:09.272Z,49.76
2023-01-20T03:28:09.292Z,50.52
2023-01-20T03:29:09.263Z,51.46
2023-01-20T03:30:09.247Z,48.41
2023-01-20T03:31:09.376Z,49.47
2023-01-20T03:32:09.246Z,47.32
2023-01-20T03:33:09.228Z,50.65
2023-01-20T03:34:09.252Z,50.21
2023-01-20T03:35:09.233Z,49.25
2023-01-20T03:36:09.234Z,48.63
2023-01-20T03:37:09.217Z,50.21
2023-01-20T03:38:09.211Z,47.74
2023-01-20T03:39:09.199Z,49.41
2023-01-20T03:40:09.184Z,50.20
2023-01-20T03:41:09.223Z,50.64
2023-01-20T03:42:09.182Z,49.87
2023-01-20T03:43:09.172Z,50.85
2023-01-20T03:44:09.184Z,49.95
2023-01-20T03:45:09.160Z,49.62
2023-01-20T03:46:09.218Z,48.25
2023-01-20T03:47:09.151Z,48.73
2023-01-20T03:48:09.157Z,48.99
2023-01-20T03:49:09.158Z,49.45
2023-01-20T03:50:09.159Z,50.69
2023-01-20T03:51:09.176Z,48.96
2023-01-20T03:52:09.157Z,50.71
2023-01-20T03:53:09.132Z,51.70
2023-01-20T03:54:09.131Z,51.85
2023-01-20T03:55:09.127Z,51.44
2023-01-20T03:56:09.140Z,52.24
2023-01-20T03:57:09.115Z,49.23
2023-01-20T03:58:09.133Z,50.14
2023-01-20T03:59:09.116Z,49.20
2023-01-20T04:00:09.103Z,50.13
2023-01-20T04:01:18.839Z,49.60
2023-01-20T04:02:10.186Z,49.73
2023-01-20T04:03:09.214Z,49.75
2023-01-20T04:04:09.109Z,49.88
2023-01-20T04:05:09.088Z,51.25
2023-01-20T04:06:09.150Z,50.89
2023-01-20T04:07:09.081Z,49.49
2023-01-20T04:08:09.076Z,48.06
2023-01-20T04:09:09.088Z,49.19
2023-01-20T04:10:09.065Z,47.32
2023-01-20T04:11:09.109Z,46.41
2023-01-20T04:12:09.065Z,48.15
2023-01-20T04:13:09.059Z,48.93
2023-01-20T04:14:09.065Z,48.79
2023-01-20T04:15:09.063Z,46.15
2023-01-20T04:16:09.094Z,47.82
2023-01-20T04:17:09.056Z,48.16
2023-01-20T04:18:09.038Z,47.24
2023-01-20T04:19:09.029Z,46.82
2023-01-20T04:20:09.029Z,45.21
2023-01-20T04:21:09.027Z,44.08
2023-01-20T04:22:09.051Z,44.05
2023-01-20T04:23:09.017Z,44.14
2023-01-20T04:24:09.009Z,45.81
2023-01-20T04:25:09.002Z,42.76
2023-01-20T04:26:09.021Z,43.29
2023-01-20T04:27:08.993Z,43.57
2023-01-20T04:28:08.977Z,43.26
2023-01-20T04:29:12.030Z,42.44
2023-01-20T04:30:08.955Z,42.62
2023-01-20T04:32:09.025Z,42.80
2023-01-20T04:33:08.985Z,43.36
2023-01-20T04:34:08.966Z,43.27
2023-01-20T04:35:08.998Z,40.99
2023-01-20T04:36:08.948Z,42.01
2023-01-20T04:37:08.966Z,40.33
2023-01-20T04:38:08.957Z,42.76
2023-01-20T04:39:08.960Z,40.04
2023-01-20T04:40:08.999Z,40.53
2023-01-20T04:41:08.983Z,40.32
2023-01-20T04:42:08.968Z,45.08
2023-01-20T04:43:08.950Z,39.50
2023-01-20T04:44:08.933Z,38.52
2023-01-20T04:45:08.935Z,38.92
2023-01-20T04:46:08.949Z,39.34
2023-01-20T04:47:08.937Z,40.93
2023-01-20T04:48:08.925Z,38.10
2023-01-20T04:49:08.903Z,41.31
2023-01-20T04:50:08.891Z,41.56
2023-01-20T04:51:08.900Z,41.61
2023-01-20T06:18:09.123Z,46.82
2023-01-20T06:54:08.913Z,47.50
2023-01-20T06:55:08.918Z,57.72
2023-01-20T06:56:08.968Z,85.36
2023-01-20T06:57:09.029Z,130.55
2023-01-20T06:58:09.062Z,145.80
2023-01-20T06:59:09.134Z,149.76
2023-01-20T07:00:09.154Z,145.43
2023-01-20T07:16:11.440Z,157.77
2023-01-20T07:19:09.517Z,106.30
2023-01-20T07:20:09.610Z,107.26
2023-01-20T07:21:09.576Z,128.11
2023-01-20T07:22:09.568Z,128.45
2023-01-20T07:23:09.568Z,128.32
2023-01-20T07:24:09.602Z,128.57
2023-01-20T07:25:09.640Z,129.72
2023-01-20T07:26:09.633Z,156.25
2023-01-20T07:27:09.666Z,139.23
2023-01-20T07:28:09.673Z,139.63
2023-01-20T07:29:10.339Z,135.58
2023-01-20T07:30:09.863Z,135.98
2023-01-20T07:31:09.753Z,144.43
2023-01-20T07:32:09.727Z,142.68
2023-01-20T07:33:09.758Z,144.14
2023-01-20T07:34:09.821Z,151.44
2023-01-20T07:35:09.785Z,146.31
2023-01-20T07:36:09.802Z,163.52
2023-01-20T07:37:09.833Z,175.31
2023-01-20T07:38:09.849Z,171.89
2023-01-20T07:39:09.855Z,171.66
2023-01-20T07:40:10.406Z,176.77
2023-01-20T07:41:09.904Z,184.96
2023-01-20T07:42:09.905Z,188.52
2023-01-20T07:43:09.941Z,189.01
2023-01-20T07:44:09.923Z,190.42
2023-01-20T07:45:10.264Z,199.49
2023-01-20T07:46:10.015Z,201.62
2023-01-20T07:47:10.175Z,217.86
2023-01-20T07:48:09.975Z,217.06
2023-01-20T07:49:12.135Z,220.65
2023-01-20T07:50:10.008Z,222.84
2023-01-20T07:51:10.008Z,227.36
2023-01-20T07:52:10.004Z,234.75
2023-01-20T07:53:10.007Z,236.53
2023-01-20T07:54:10.024Z,236.98
2023-01-20T07:55:10.016Z,238.36
2023-01-20T07:56:10.070Z,240.56
2023-01-20T07:57:10.044Z,245.78
2023-01-20T07:58:10.037Z,254.86
2023-01-20T07:59:10.045Z,245.02
2023-01-20T08:00:10.062Z,244.74
2023-01-20T08:01:10.160Z,250.00
2023-01-20T08:02:10.171Z,249.67
2023-01-20T08:03:10.040Z,243.68
2023-01-20T08:04:10.078Z,245.36
2023-01-20T08:05:10.402Z,245.77
2023-01-20T08:06:10.096Z,248.86
2023-01-20T08:07:10.080Z,245.12
2023-01-20T08:08:10.058Z,245.42
2023-01-20T08:09:10.066Z,245.76
2023-01-20T08:10:10.078Z,245.37
2023-01-20T08:11:10.355Z,246.79
2023-01-20T08:12:10.070Z,248.96
2023-01-20T08:13:10.102Z,246.98
2023-01-20T08:14:10.112Z,243.72
2023-01-20T08:15:10.092Z,243.11
2023-01-20T08:16:11.142Z,248.24
2023-01-20T08:17:10.098Z,248.53
2023-01-20T08:18:10.110Z,248.75
2023-01-20T08:19:10.134Z,242.85
2023-01-20T08:20:10.922Z,246.79
2023-01-20T08:21:10.117Z,252.20
2023-01-20T08:22:12.850Z,250.00
2023-01-20T08:23:10.119Z,248.68
2023-01-20T08:24:10.153Z,247.55
2023-01-20T08:25:10.138Z,247.34
2023-01-20T08:26:10.143Z,247.11
2023-01-20T08:27:10.151Z,243.04
2023-01-20T08:28:10.164Z,245.38
2023-01-20T08:29:10.211Z,248.28
2023-01-20T08:30:10.183Z,248.54
2023-01-20T08:31:10.303Z,248.28
2023-01-20T08:32:10.155Z,245.10
2023-01-20T08:33:10.167Z,243.16
2023-01-20T08:34:10.162Z,236.92
2023-01-20T08:35:10.167Z,242.39
2023-01-20T08:36:10.181Z,237.10
2023-01-20T08:37:10.180Z,243.19
2023-01-20T08:38:10.231Z,236.95
2023-01-20T08:39:10.161Z,235.27
2023-01-20T08:40:10.201Z,227.53
2023-01-20T08:41:10.386Z,228.49
2023-01-20T08:42:10.176Z,237.49
2023-01-20T08:43:10.231Z,240.60
2023-01-20T08:44:10.879Z,244.32
2023-01-20T08:45:10.240Z,241.56
2023-01-20T08:46:11.270Z,243.69
2023-01-20T08:47:10.171Z,243.52
2023-01-20T08:48:10.207Z,250.62
2023-01-20T08:49:10.196Z,244.45
2023-01-20T08:50:10.202Z,248.47
2023-01-20T08:51:10.298Z,247.68
2023-01-20T08:52:12.135Z,247.15
2023-01-20T08:53:10.180Z,246.38
2023-01-20T08:54:10.198Z,250.00
2023-01-20T08:55:10.198Z,243.94
2023-01-20T08:56:10.224Z,249.78
2023-01-20T08:57:10.211Z,246.58
2023-01-20T08:58:10.186Z,248.28
2023-01-20T08:59:10.890Z,247.04
2023-01-20T09:00:10.189Z,246.46
2023-01-20T09:01:10.944Z,249.92
2023-01-20T09:02:10.346Z,246.50
2023-01-20T09:03:10.218Z,246.82
2023-01-20T09:04:10.270Z,247.64
2023-01-20T09:05:10.259Z,246.45
2023-01-20T09:06:10.235Z,247.64
2023-01-20T09:07:10.880Z,246.29
2023-01-20T09:08:10.415Z,246.49
2023-01-20T09:09:10.351Z,246.78
2023-01-20T09:10:10.359Z,247.19
2023-01-20T09:11:10.377Z,246.50
2023-01-20T09:12:10.339Z,246.39
2023-01-20T09:13:10.343Z,246.59
2023-01-20T09:14:10.345Z,245.70
2023-01-20T09:15:10.351Z,246.74
2023-01-20T09:16:10.910Z,243.21
2023-01-20T09:17:10.367Z,245.52
2023-01-20T09:18:10.369Z,241.40
2023-01-20T09:19:10.413Z,226.98
2023-01-20T09:20:10.391Z,221.97
2023-01-20T09:21:10.408Z,209.20
2023-01-20T09:22:10.421Z,210.25
2023-01-20T09:23:10.698Z,206.67
2023-01-20T09:24:10.397Z,197.98
2023-01-20T09:25:10.407Z,196.78
2023-01-20T09:26:10.436Z,193.63
2023-01-20T09:27:10.431Z,185.80
2023-01-20T09:28:10.437Z,181.27
2023-01-20T09:29:10.473Z,179.56
2023-01-20T09:30:10.493Z,173.95
2023-01-20T09:31:10.526Z,168.44
2023-01-20T09:32:10.468Z,163.00
2023-01-20T09:33:11.402Z,161.54
2023-01-20T09:34:10.507Z,153.67
2023-01-20T09:35:10.574Z,152.87
2023-01-20T09:36:10.555Z,162.20
2023-01-20T09:37:10.567Z,165.36
2023-01-20T09:38:10.573Z,166.12
2023-01-20T09:39:10.577Z,173.28
2023-01-20T09:40:10.660Z,171.34
2023-01-20T09:41:10.653Z,171.58
2023-01-20T09:42:10.629Z,164.42
2023-01-20T09:43:10.655Z,148.58
2023-01-20T09:44:10.646Z,146.10
2023-01-20T09:45:10.687Z,131.21
2023-01-20T09:46:10.735Z,129.88
2023-01-20T09:47:10.698Z,115.98
2023-01-20T09:48:10.703Z,117.85
2023-01-20T09:49:10.764Z,110.48
2023-01-20T09:50:10.760Z,100.80
2023-01-20T09:51:10.752Z,100.68
2023-01-20T09:52:10.762Z,89.95
2023-01-20T09:53:10.767Z,85.29
2023-01-20T09:54:10.805Z,80.40
2023-01-20T09:55:10.828Z,78.94
2023-01-20T09:56:10.823Z,74.15
2023-01-20T09:57:10.829Z,74.07
2023-01-20T09:58:10.869Z,80.39
2023-01-20T09:59:10.859Z,87.55
2023-01-20T10:00:10.873Z,105.86
2023-01-20T10:01:10.940Z,120.38
2023-01-20T10:02:10.941Z,137.43
2023-01-20T10:03:10.928Z,122.44
2023-01-20T10:04:10.933Z,143.88
2023-01-20T10:05:10.987Z,156.10
2023-01-20T10:06:10.950Z,155.75
2023-01-20T10:07:10.966Z,160.54
2023-01-20T10:08:11.012Z,177.01
2023-01-20T10:09:10.992Z,171.50
2023-01-20T10:10:11.007Z,178.99
2023-01-20T10:11:11.073Z,183.53
2023-01-20T10:12:11.017Z,187.50
2023-01-20T10:13:11.005Z,184.98
2023-01-20T10:14:11.051Z,189.88
2023-01-20T10:15:11.056Z,183.93
2023-01-20T10:16:11.138Z,187.35
2023-01-20T10:17:11.041Z,186.25
2023-01-20T10:18:11.065Z,154.19
2023-01-20T10:19:11.070Z,169.89
2023-01-20T10:20:11.068Z,164.62
2023-01-20T10:21:11.079Z,143.70
2023-01-20T10:22:11.075Z,143.25
2023-01-20T10:23:11.085Z,158.07
2023-01-20T10:24:11.089Z,97.75
2023-01-20T10:25:11.111Z,73.15
2023-01-20T10:26:11.120Z,67.19
2023-01-20T10:27:11.129Z,66.46
2023-01-20T10:28:11.137Z,80.92
2023-01-20T10:29:11.164Z,70.60
2023-01-20T10:30:11.160Z,77.14
2023-01-20T10:31:11.249Z,64.15
2023-01-20T10:32:11.216Z,81.45
2023-01-20T10:33:11.221Z,60.40
2023-01-20T10:34:11.223Z,31.15
2023-01-20T10:35:11.230Z,28.11
2023-01-20T10:36:11.235Z,32.23
2023-01-20T10:37:11.247Z,41.83
2023-01-20T10:38:11.263Z,46.78
2023-01-20T10:39:11.284Z,64.87
2023-01-20T10:40:11.306Z,60.66
2023-01-20T10:41:11.804Z,69.28
2023-01-20T10:42:11.308Z,69.91
2023-01-20T10:43:11.333Z,61.17
2023-01-20T10:44:11.339Z,54.53
2023-01-20T10:45:11.332Z,66.05
2023-01-20T10:46:12.565Z,31.88
2023-01-20T10:47:13.556Z,26.57
2023-01-20T10:48:11.433Z,0.00
2023-01-20T10:49:11.391Z,18.41
2023-01-20T10:50:11.394Z,25.31
2023-01-20T10:51:11.396Z,34.16
2023-01-20T10:52:11.419Z,28.02
2023-01-20T10:53:13.487Z,35.89
2023-01-20T10:54:11.447Z,34.48
2023-01-20T10:55:11.477Z,48.47
2023-01-20T10:56:11.503Z,68.44
2023-01-20T10:57:11.503Z,66.05
2023-01-20T10:58:11.510Z,66.43
2023-01-20T10:59:11.542Z,74.38
2023-01-20T11:00:11.537Z,64.07
2023-01-20T11:01:11.542Z,89.64
2023-01-20T11:02:12.719Z,59.51
2023-01-20T11:03:11.618Z,29.23
2023-01-20T11:04:12.416Z,0.00
2023-01-20T11:05:11.597Z,0.00
2023-01-20T11:06:11.787Z,5.74
2023-01-20T11:07:11.650Z,7.88
2023-01-20T11:08:11.693Z,14.57
2023-01-20T11:09:11.702Z,28.21
2023-01-20T11:10:11.737Z,25.85
2023-01-20T11:11:11.741Z,23.13
2023-01-20T11:12:11.735Z,28.45
2023-01-20T11:13:11.761Z,38.83
2023-01-20T11:14:11.815Z,50.89
2023-01-20T11:15:11.845Z,41.88
2023-01-20T11:16:11.847Z,35.54
2023-01-20T11:17:11.809Z,54.08
2023-01-20T11:18:11.849Z,53.85
2023-01-20T11:19:11.910Z,68.45
2023-01-20T11:20:11.883Z,57.89
2023-01-20T11:21:11.891Z,55.28
2023-01-20T11:22:11.897Z,36.50
2023-01-20T12:31:13.944Z,114.75
2023-01-20T12:32:13.106Z,126.12
2023-01-20T12:33:13.135Z,153.75
2023-01-20T12:34:13.111Z,188.13
2023-01-20T12:35:13.147Z,184.68
2023-01-20T12:36:13.169Z,176.00
2023-01-20T12:37:13.160Z,204.74
2023-01-20T12:38:13.180Z,202.97
2023-01-20T12:39:13.200Z,222.03
2023-01-20T12:40:13.462Z,195.45
2023-01-20T12:41:13.204Z,198.18
2023-01-20T12:42:13.236Z,178.19
2023-01-20T12:43:13.237Z,182.28
2023-01-20T12:44:13.237Z,173.93
2023-01-20T12:45:13.257Z,166.84
2023-01-20T12:46:13.309Z,181.71
2023-01-20T12:47:13.649Z,188.79
2023-01-20T12:48:13.279Z,171.36
2023-01-20T12:49:13.310Z,191.29
2023-01-20T12:50:13.548Z,188.26
2023-01-20T12:52:13.378Z,197.95
2023-01-20T12:53:15.345Z,198.49
2023-01-20T12:54:13.352Z,191.91
2023-01-20T12:55:13.381Z,191.13
2023-01-20T12:56:13.403Z,190.89
2023-01-20T12:57:13.391Z,216.97
2023-01-20T12:58:13.396Z,236.74
2023-01-20T12:59:15.178Z,219.60
2023-01-20T13:00:13.790Z,212.57
2023-01-20T15:33:14.394Z,237.04
2023-01-20T15:34:14.401Z,229.30
2023-01-20T19:19:15.194Z,214.56
2023-01-20T19:20:15.606Z,204.12
2023-01-20T19:21:15.200Z,210.99
2023-01-20T19:22:15.199Z,204.20
2023-01-20T19:23:15.199Z,215.49
2023-01-20T19:24:15.205Z,217.87
2023-01-20T19:25:15.231Z,215.78
2023-01-20T19:26:15.216Z,224.75
2023-01-20T19:27:15.230Z,212.22
2023-01-20T19:28:15.228Z,205.47
2023-01-20T19:29:15.231Z,217.27
2023-01-20T19:30:15.561Z,203.39
2023-01-20T19:31:15.425Z,193.60
2023-01-20T19:32:15.280Z,196.53
2023-01-20T19:33:15.278Z,196.82
2023-01-20T19:34:15.269Z,208.65
2023-01-20T19:35:15.292Z,204.80
2023-01-20T19:36:15.300Z,215.50
2023-01-20T19:37:15.319Z,215.73
2023-01-20T19:38:15.319Z,218.49
2023-01-20T19:39:15.324Z,215.00
2023-01-20T19:40:15.851Z,218.17
2023-01-20T19:41:15.337Z,214.62
2023-01-20T19:42:15.351Z,211.16
2023-01-20T19:43:15.359Z,219.40
2023-01-20T19:44:15.383Z,215.05
2023-01-20T22:30:18.208Z,215.99
2023-01-20T22:31:17.920Z,218.58
2023-01-20T22:32:17.894Z,190.88
2023-01-20T22:33:17.924Z,220.45
2023-01-20T22:34:17.917Z,196.42
2023-01-20T22:35:17.933Z,211.02
2023-01-20T22:36:17.962Z,199.26
2023-01-20T22:37:17.956Z,226.66
2023-01-20T22:38:17.970Z,204.61
2023-01-20T22:39:17.997Z,203.34
2023-01-20T22:40:18.325Z,214.81
2023-01-20T22:41:18.032Z,228.45
2023-01-20T22:42:18.036Z,201.90
2023-01-20T22:43:18.042Z,223.36
2023-01-20T22:44:18.079Z,195.60
2023-01-20T22:45:18.086Z,214.84
2023-01-20T22:46:18.169Z,227.95
2023-01-20T22:47:18.116Z,216.74
2023-01-20T22:48:18.119Z,189.73
2023-01-20T22:49:18.146Z,198.94
2023-01-20T22:50:18.397Z,218.32
2023-01-20T22:51:18.269Z,222.55
2023-01-20T22:52:18.187Z,227.22
2023-01-20T22:53:18.196Z,213.35
2023-01-20T22:54:18.206Z,224.98
2023-01-20T22:55:18.218Z,208.05
2023-01-20T22:56:18.239Z,223.77
2023-01-20T22:57:18.290Z,222.55
2023-01-20T22:58:18.268Z,226.37
2023-01-20T22:59:18.279Z,225.68
2023-01-20T23:00:18.906Z,226.31
2023-01-20T23:01:18.407Z,234.06
2023-01-20T23:02:18.368Z,205.74
2023-01-20T23:03:18.350Z,213.00
2023-01-20T23:04:18.346Z,197.61
2023-01-20T23:05:18.369Z,194.67
2023-01-20T23:06:18.392Z,196.92
2023-01-20T23:07:18.387Z,214.89
2023-01-20T23:08:18.423Z,238.14
2023-01-20T23:09:18.427Z,246.40
2023-01-20T23:10:18.568Z,241.36
2023-01-20T23:11:18.440Z,240.67
2023-01-20T23:12:18.459Z,233.89
2023-01-20T23:13:18.453Z,219.15
2023-01-20T23:14:18.477Z,228.74
2023-01-20T23:15:18.482Z,245.37
2023-01-20T23:16:18.539Z,248.45
2023-01-20T23:17:18.510Z,230.91
2023-01-20T23:18:18.519Z,234.10
2023-01-20T23:19:18.553Z,236.22
2023-01-20T23:20:18.806Z,235.94
2023-01-20T23:21:18.608Z,215.19
2023-01-20T23:22:18.579Z,221.61
2023-01-20T23:23:18.596Z,239.87
2023-01-20T23:24:18.623Z,237.96
2023-01-20T23:25:18.631Z,218.90
2023-01-20T23:26:18.652Z,239.39
2023-01-20T23:27:18.659Z,238.05
2023-01-20T23:28:18.668Z,240.08
2023-01-20T23:29:18.690Z,244.75
2023-01-20T23:30:18.752Z,247.08
2023-01-20T23:31:18.723Z,247.87
2023-01-20T23:32:18.707Z,230.90
2023-01-20T23:33:18.725Z,227.45
2023-01-20T23:34:18.738Z,211.62
2023-01-20T23:35:18.745Z,211.16
2023-01-20T23:36:18.763Z,211.17
2023-01-20T23:37:18.777Z,188.19
2023-01-20T23:38:18.786Z,217.33
2023-01-20T23:39:18.813Z,226.58
2023-01-20T23:40:19.097Z,236.93
2023-01-20T23:41:18.828Z,243.83
2023-01-20T23:42:18.965Z,225.71
2023-01-20T23:43:18.927Z,224.70
2023-01-20T23:44:18.902Z,203.20
2023-01-20T23:45:18.871Z,203.50
2023-01-20T23:46:18.912Z,222.48
2023-01-20T23:47:18.924Z,218.90
2023-01-20T23:48:18.925Z,228.86
2023-01-20T23:49:21.065Z,207.83
2023-01-20T23:50:18.941Z,208.24
2023-01-20T23:51:19.019Z,211.35
2023-01-20T23:52:18.973Z,217.70
2023-01-20T23:53:18.985Z,227.12
2023-01-20T23:54:19.001Z,222.77
2023-01-20T23:55:19.010Z,241.01
2023-01-20T23:56:19.025Z,242.80
2023-01-20T23:57:19.696Z,242.64
2023-01-20T23:58:19.043Z,232.66
2023-01-20T23:59:19.053Z,242.64
